createdAt,value
2018-07-15T00:00:53.432Z,8.80
2018-07-15T00:01:53.474Z,8.60
2018-07-15T00:02:53.404Z,9.20
2018-07-15T00:03:53.390Z,9.20
2018-07-15T00:04:53.379Z,9.40
2018-07-15T00:05:53.376Z,8.80
2018-07-15T00:06:53.424Z,8.90
2018-07-15T00:07:53.349Z,8.90
2018-07-15T00:08:53.343Z,8.70
2018-07-15T00:09:53.324Z,9.30
2018-07-15T00:10:53.313Z,9.10
2018-07-15T00:11:53.373Z,9.30
2018-07-15T00:12:53.294Z,9.00
2018-07-15T00:13:53.280Z,8.80
2018-07-15T00:14:53.818Z,8.80
2018-07-15T00:15:53.261Z,9.30
2018-07-15T00:16:53.313Z,9.10
2018-07-15T00:17:53.239Z,8.90
2018-07-15T00:18:53.233Z,8.80
2018-07-15T00:19:53.219Z,8.70
2018-07-15T00:20:53.211Z,9.00
2018-07-15T00:21:53.258Z,8.50
2018-07-15T00:23:01.332Z,8.70
2018-07-15T00:24:01.342Z,8.50
2018-07-15T00:25:01.244Z,8.10
2018-07-15T00:26:01.254Z,8.30
2018-07-15T00:27:01.330Z,8.20
2018-07-15T00:28:01.264Z,7.90
2018-07-15T00:29:01.274Z,8.20
2018-07-15T00:30:01.833Z,8.20
2018-07-15T00:31:01.286Z,7.80
2018-07-15T00:32:01.373Z,8.50
2018-07-15T00:33:01.201Z,7.80
2018-07-15T00:34:01.717Z,8.20
2018-07-15T00:35:01.202Z,8.30
2018-07-15T00:36:01.216Z,7.80
2018-07-15T00:36:53.104Z,8.40
2018-07-15T00:37:53.026Z,8.20
2018-07-15T00:39:01.135Z,8.40
2018-07-15T00:40:01.144Z,8.20
2018-07-15T00:41:01.138Z,8.00
2018-07-15T00:42:01.220Z,7.80
2018-07-15T00:43:01.058Z,8.00
2018-07-15T00:44:01.059Z,8.20
2018-07-15T00:45:01.075Z,8.20
2018-07-15T00:46:01.083Z,8.20
2018-07-15T00:47:01.152Z,8.00
2018-07-15T00:48:01.495Z,8.10
2018-07-15T00:49:00.997Z,8.10
2018-07-15T00:50:00.991Z,7.70
2018-07-15T00:51:01.007Z,8.10
2018-07-15T00:52:01.083Z,7.80
2018-07-15T00:53:01.027Z,7.70
2018-07-15T00:54:01.061Z,7.70
2018-07-15T00:55:00.941Z,8.00
2018-07-15T00:56:00.939Z,8.10
2018-07-15T00:57:00.999Z,8.00
2018-07-15T00:58:00.947Z,8.20
2018-07-15T00:58:52.801Z,8.30
2018-07-15T00:59:52.791Z,8.40
2018-07-15T01:00:52.777Z,8.30
2018-07-15T01:01:53.105Z,8.30
2018-07-15T01:02:52.757Z,8.30
2018-07-15T01:04:00.881Z,8.00
2018-07-15T01:04:52.734Z,8.00
2018-07-15T01:05:52.737Z,8.30
2018-07-15T01:06:52.774Z,8.10
2018-07-15T01:07:52.701Z,8.20
2018-07-15T01:08:52.693Z,8.70
2018-07-15T01:09:52.683Z,8.00
2018-07-15T01:10:52.674Z,8.40
2018-07-15T01:11:52.731Z,8.80
2018-07-15T01:12:52.648Z,8.70
2018-07-15T01:13:52.643Z,8.90
2018-07-15T01:14:52.632Z,8.20
2018-07-15T01:15:52.616Z,8.60
2018-07-15T01:16:52.673Z,8.60
2018-07-15T01:17:52.601Z,8.20
2018-07-15T01:18:52.596Z,8.40
2018-07-15T01:19:52.571Z,8.00
2018-07-15T01:20:52.566Z,8.30
2018-07-15T01:21:52.625Z,7.70
2018-07-15T01:23:00.690Z,8.30
2018-07-15T01:24:00.083Z,7.60
2018-07-15T01:24:52.524Z,7.80
2018-07-15T01:26:00.615Z,7.90
2018-07-15T01:27:00.689Z,7.80
2018-07-15T01:28:01.141Z,7.90
2018-07-15T01:29:01.862Z,8.00
2018-07-15T01:30:01.366Z,7.80
2018-07-15T01:31:00.657Z,8.30
2018-07-15T01:32:00.117Z,8.60
2018-07-15T01:32:52.431Z,8.50
2018-07-15T01:34:00.935Z,7.90
2018-07-15T01:34:52.409Z,7.70
2018-07-15T01:36:00.480Z,7.80
2018-07-15T01:36:52.389Z,7.90
2018-07-15T01:37:52.442Z,7.60
2018-07-15T01:38:52.367Z,8.40
2018-07-15T01:39:52.362Z,8.00
2018-07-15T01:40:52.366Z,8.00
2018-07-15T01:41:52.341Z,7.70
2018-07-15T01:42:52.387Z,7.40
2018-07-15T01:43:52.315Z,7.40
2018-07-15T01:44:52.354Z,7.80
2018-07-15T01:45:52.298Z,8.10
2018-07-15T01:46:52.300Z,7.60
2018-07-15T01:47:52.347Z,8.00
2018-07-15T01:48:52.264Z,7.70
2018-07-15T01:49:52.251Z,7.90
2018-07-15T01:50:52.243Z,7.80
2018-07-15T01:51:52.238Z,8.50
2018-07-15T01:52:52.276Z,7.70
2018-07-15T01:53:52.209Z,7.90
2018-07-15T01:54:52.198Z,7.70
2018-07-15T01:55:52.185Z,7.60
2018-07-15T01:56:52.990Z,7.90
2018-07-15T01:57:52.241Z,7.50
2018-07-15T01:58:52.156Z,8.20
2018-07-15T01:59:52.156Z,8.00
2018-07-15T02:00:52.160Z,8.30
2018-07-15T02:01:52.120Z,8.10
2018-07-15T02:02:52.180Z,7.80
2018-07-15T02:03:52.117Z,8.20
2018-07-15T02:04:52.092Z,8.10
2018-07-15T02:05:52.092Z,8.00
2018-07-15T02:06:52.066Z,8.00
2018-07-15T02:07:52.120Z,7.90
2018-07-15T02:08:52.046Z,8.10
2018-07-15T02:09:52.051Z,8.40
2018-07-15T02:10:52.026Z,8.10
2018-07-15T02:11:52.026Z,8.40
2018-07-15T02:12:52.070Z,7.80
2018-07-15T02:13:51.991Z,8.10
2018-07-15T02:14:51.983Z,7.80
2018-07-15T02:15:51.971Z,8.10
2018-07-15T02:16:51.960Z,7.60
2018-07-15T02:17:52.045Z,7.90
2018-07-15T02:18:51.943Z,8.30
2018-07-15T02:19:51.935Z,8.30
2018-07-15T02:20:51.921Z,8.20
2018-07-15T02:21:51.921Z,8.50
2018-07-15T02:22:51.965Z,7.90
2018-07-15T02:23:51.888Z,8.20
2018-07-15T02:24:51.877Z,8.20
2018-07-15T02:25:51.866Z,8.30
2018-07-15T02:26:51.858Z,8.10
2018-07-15T02:27:51.902Z,8.50
2018-07-15T02:28:51.890Z,8.20
2018-07-15T02:29:51.833Z,8.50
2018-07-15T02:30:51.808Z,8.60
2018-07-15T02:31:51.800Z,8.40
2018-07-15T02:32:51.860Z,8.40
2018-07-15T02:33:51.786Z,8.50
2018-07-15T02:34:51.781Z,8.50
2018-07-15T02:35:51.764Z,8.40
2018-07-15T02:36:51.850Z,8.70
2018-07-15T02:37:51.797Z,8.60
2018-07-15T02:38:52.464Z,8.30
2018-07-15T02:39:51.714Z,8.20
2018-07-15T02:40:51.700Z,8.80
2018-07-15T02:41:51.690Z,8.50
2018-07-15T02:42:51.744Z,8.40
2018-07-15T02:43:51.667Z,8.30
2018-07-15T02:44:51.664Z,8.30
2018-07-15T02:45:51.670Z,8.80
2018-07-15T02:46:51.640Z,8.50
2018-07-15T02:47:51.686Z,8.90
2018-07-15T02:48:51.614Z,9.00
2018-07-15T02:49:51.614Z,9.00
2018-07-15T02:50:51.594Z,9.80
2018-07-15T02:51:51.581Z,9.90
2018-07-15T02:52:51.636Z,10.10
2018-07-15T02:53:51.562Z,9.80
2018-07-15T02:54:51.555Z,10.20
2018-07-15T02:55:51.537Z,10.30
2018-07-15T02:56:51.528Z,10.20
2018-07-15T02:57:51.578Z,10.40
2018-07-15T02:58:51.514Z,9.90
2018-07-15T02:59:52.467Z,8.90
2018-07-15T03:00:51.487Z,8.90
2018-07-15T03:01:51.475Z,8.30
2018-07-15T03:02:51.555Z,8.30
2018-07-15T03:03:51.453Z,8.60
2018-07-15T03:04:51.445Z,8.40
2018-07-15T03:05:51.431Z,8.30
2018-07-15T03:06:51.420Z,8.40
2018-07-15T03:07:51.488Z,8.40
2018-07-15T03:08:51.402Z,8.30
2018-07-15T03:09:51.389Z,8.80
2018-07-15T03:10:51.381Z,9.10
2018-07-15T03:11:51.365Z,8.30
2018-07-15T03:12:51.359Z,8.40
2018-07-15T03:13:51.428Z,8.50
2018-07-15T03:14:51.340Z,8.20
2018-07-15T03:15:51.326Z,8.60
2018-07-15T03:16:51.313Z,8.10
2018-07-15T03:17:51.982Z,8.20
2018-07-15T03:18:51.349Z,7.80
2018-07-15T03:19:51.282Z,7.80
2018-07-15T03:20:51.963Z,7.90
2018-07-15T03:21:51.263Z,8.20
2018-07-15T03:22:51.257Z,7.70
2018-07-15T03:23:51.302Z,8.10
2018-07-15T03:24:51.227Z,7.50
2018-07-15T03:25:51.216Z,8.20
2018-07-15T03:26:51.205Z,7.80
2018-07-15T03:27:51.197Z,8.10
2018-07-15T03:28:51.252Z,8.20
2018-07-15T03:29:51.171Z,8.90
2018-07-15T03:30:51.163Z,8.30
2018-07-15T03:31:51.159Z,8.40
2018-07-15T03:32:51.141Z,8.00
2018-07-15T03:33:51.212Z,8.30
2018-07-15T03:34:51.124Z,8.10
2018-07-15T03:35:51.108Z,8.00
2018-07-15T03:36:51.097Z,8.50
2018-07-15T03:37:51.091Z,8.20
2018-07-15T03:38:51.138Z,8.00
2018-07-15T03:39:51.107Z,8.20
2018-07-15T03:40:51.053Z,8.20
2018-07-15T03:41:51.959Z,8.10
2018-07-15T03:42:51.040Z,7.90
2018-07-15T03:43:51.085Z,8.00
2018-07-15T03:44:51.012Z,8.00
2018-07-15T03:45:51.002Z,7.60
2018-07-15T03:46:51.015Z,8.10
2018-07-15T03:47:50.978Z,8.10
2018-07-15T03:48:51.028Z,8.00
2018-07-15T03:49:50.964Z,8.00
2018-07-15T03:50:50.955Z,7.80
2018-07-15T03:51:50.939Z,8.40
2018-07-15T03:52:50.925Z,7.70
2018-07-15T03:53:50.978Z,8.00
2018-07-15T03:54:50.903Z,7.60
2018-07-15T03:55:50.898Z,8.20
2018-07-15T03:56:50.912Z,8.40
2018-07-15T03:57:50.876Z,8.40
2018-07-15T03:58:50.928Z,8.10
2018-07-15T03:59:50.851Z,8.10
2018-07-15T04:00:50.887Z,8.10
2018-07-15T04:01:50.829Z,8.50
2018-07-15T04:02:51.464Z,8.10
2018-07-15T04:03:50.897Z,8.00
2018-07-15T04:04:50.842Z,8.40
2018-07-15T04:05:50.788Z,8.20
2018-07-15T04:06:50.776Z,8.30
2018-07-15T04:07:50.765Z,8.30
2018-07-15T04:08:50.878Z,8.60
2018-07-15T04:09:50.743Z,9.00
2018-07-15T04:10:50.729Z,10.70
2018-07-15T04:11:50.732Z,10.50
2018-07-15T04:12:50.727Z,10.40
2018-07-15T04:13:50.765Z,10.40
2018-07-15T04:14:50.690Z,11.00
2018-07-15T04:15:50.674Z,11.30
2018-07-15T04:16:50.665Z,12.60
2018-07-15T04:17:50.655Z,11.50
2018-07-15T04:18:50.711Z,13.50
2018-07-15T04:19:50.632Z,13.00
2018-07-15T04:20:50.624Z,12.60
2018-07-15T04:21:50.610Z,12.80
2018-07-15T04:22:50.610Z,12.80
2018-07-15T04:23:51.534Z,12.80
2018-07-15T04:24:50.580Z,12.90
2018-07-15T04:25:50.566Z,12.90
2018-07-15T04:26:50.576Z,13.00
2018-07-15T04:27:50.547Z,12.90
2018-07-15T04:28:50.599Z,13.40
2018-07-15T04:29:50.543Z,12.50
2018-07-15T04:30:50.519Z,13.30
2018-07-15T04:31:50.499Z,13.50
2018-07-15T04:32:50.491Z,13.40
2018-07-15T04:33:50.541Z,14.10
2018-07-15T04:34:50.471Z,13.90
2018-07-15T04:35:50.461Z,13.00
2018-07-15T04:36:50.447Z,13.60
2018-07-15T04:37:50.440Z,13.80
2018-07-15T04:38:50.542Z,14.40
2018-07-15T04:39:50.414Z,14.20
2018-07-15T04:40:50.405Z,14.90
2018-07-15T04:41:50.394Z,13.90
2018-07-15T04:42:50.388Z,13.50
2018-07-15T04:43:50.451Z,13.80
2018-07-15T04:44:50.955Z,13.40
2018-07-15T04:45:50.350Z,14.00
2018-07-15T04:46:50.336Z,12.70
2018-07-15T04:47:50.326Z,12.80
2018-07-15T04:48:50.382Z,13.60
2018-07-15T04:49:50.314Z,13.70
2018-07-15T04:50:50.313Z,13.30
2018-07-15T04:51:50.287Z,12.60
2018-07-15T04:52:50.278Z,12.60
2018-07-15T04:53:50.334Z,13.40
2018-07-15T04:54:50.254Z,12.50
2018-07-15T04:55:50.246Z,12.20
2018-07-15T04:56:50.242Z,11.10
2018-07-15T04:57:50.219Z,10.30
2018-07-15T04:58:50.286Z,11.10
2018-07-15T04:59:50.196Z,12.10
2018-07-15T05:00:50.192Z,11.50
2018-07-15T05:01:58.381Z,10.60
2018-07-15T05:02:58.346Z,11.00
2018-07-15T05:03:58.621Z,10.90
2018-07-15T05:04:58.253Z,11.00
2018-07-15T05:05:58.352Z,10.10
2018-07-15T05:06:50.123Z,10.60
2018-07-15T05:07:50.115Z,9.90
2018-07-15T05:08:50.101Z,10.50
2018-07-15T05:09:58.244Z,9.90
2018-07-15T05:10:58.186Z,10.10
2018-07-15T05:11:58.188Z,9.40
2018-07-15T05:12:58.196Z,10.00
2018-07-15T05:13:57.666Z,9.70
2018-07-15T05:14:58.118Z,10.20
2018-07-15T05:15:50.031Z,10.40
2018-07-15T05:16:50.016Z,10.20
2018-07-15T05:17:50.005Z,10.10
2018-07-15T05:18:49.994Z,9.30
2018-07-15T05:19:50.046Z,9.70
2018-07-15T05:20:49.974Z,9.50
2018-07-15T05:21:49.964Z,9.40
2018-07-15T05:22:49.957Z,9.80
2018-07-15T05:23:49.939Z,9.80
2018-07-15T05:24:50.421Z,10.00
2018-07-15T05:25:49.918Z,9.80
2018-07-15T05:26:49.908Z,9.80
2018-07-15T05:27:49.894Z,8.80
2018-07-15T05:28:49.884Z,9.80
2018-07-15T05:29:49.940Z,9.80
2018-07-15T05:30:49.867Z,9.00
2018-07-15T05:31:49.853Z,8.90
2018-07-15T05:32:49.841Z,8.90
2018-07-15T05:33:49.833Z,8.70
2018-07-15T05:34:49.892Z,8.90
2018-07-15T05:35:50.318Z,9.00
2018-07-15T05:36:49.803Z,9.00
2018-07-15T05:37:49.794Z,8.40
2018-07-15T05:38:49.779Z,9.50
2018-07-15T05:39:49.841Z,8.60
2018-07-15T05:40:49.759Z,9.30
2018-07-15T05:41:49.816Z,8.30
2018-07-15T05:42:49.737Z,9.70
2018-07-15T05:43:49.728Z,8.80
2018-07-15T05:44:49.781Z,10.00
2018-07-15T05:45:49.703Z,9.70
2018-07-15T05:46:49.693Z,9.00
2018-07-15T05:47:49.692Z,9.30
2018-07-15T05:48:49.681Z,10.10
2018-07-15T05:49:49.728Z,10.30
2018-07-15T05:50:49.657Z,9.90
2018-07-15T05:51:49.642Z,10.00
2018-07-15T05:52:49.626Z,9.80
2018-07-15T05:53:49.612Z,8.70
2018-07-15T05:54:49.668Z,10.00
2018-07-15T05:55:49.591Z,10.20
2018-07-15T05:56:50.314Z,10.10
2018-07-15T05:57:49.574Z,10.00
2018-07-15T05:58:49.568Z,9.40
2018-07-15T05:59:49.634Z,10.50
2018-07-15T06:00:49.543Z,9.80
2018-07-15T06:01:49.535Z,8.90
2018-07-15T06:02:49.521Z,10.10
2018-07-15T06:03:49.510Z,10.50
2018-07-15T06:04:49.563Z,10.70
2018-07-15T06:05:49.491Z,11.40
2018-07-15T06:06:49.479Z,11.00
2018-07-15T06:07:49.474Z,10.60
2018-07-15T06:08:49.471Z,10.70
2018-07-15T06:09:49.505Z,10.60
2018-07-15T06:10:49.535Z,10.30
2018-07-15T06:11:49.427Z,11.30
2018-07-15T06:12:49.410Z,10.20
2018-07-15T06:13:49.404Z,10.50
2018-07-15T06:14:49.453Z,10.70
2018-07-15T06:15:49.380Z,10.80
2018-07-15T06:16:49.378Z,10.50
2018-07-15T06:17:50.312Z,10.30
2018-07-15T06:18:49.350Z,10.30
2018-07-15T06:19:49.407Z,10.60
2018-07-15T06:20:49.328Z,9.90
2018-07-15T06:21:49.319Z,11.20
2018-07-15T06:22:49.343Z,9.70
2018-07-15T06:23:49.300Z,11.70
2018-07-15T06:24:49.352Z,12.60
2018-07-15T06:25:49.280Z,10.90
2018-07-15T06:26:49.261Z,10.60
2018-07-15T06:27:49.252Z,9.90
2018-07-15T06:28:49.239Z,10.50
2018-07-15T06:29:49.289Z,11.30
2018-07-15T06:30:49.220Z,12.20
2018-07-15T06:31:49.245Z,11.20
2018-07-15T06:32:49.202Z,10.60
2018-07-15T06:33:49.192Z,11.60
2018-07-15T06:34:49.258Z,11.20
2018-07-15T06:35:49.173Z,10.50
2018-07-15T06:36:49.159Z,10.50
2018-07-15T06:37:49.144Z,11.30
2018-07-15T06:38:49.812Z,11.00
2018-07-15T06:39:49.125Z,11.10
2018-07-15T06:40:49.178Z,10.80
2018-07-15T06:41:49.103Z,10.50
2018-07-15T06:42:49.093Z,10.90
2018-07-15T06:43:49.081Z,11.70
2018-07-15T06:44:49.076Z,12.00
2018-07-15T06:45:49.120Z,12.20
2018-07-15T06:46:49.051Z,12.50
2018-07-15T06:47:49.040Z,12.60
2018-07-15T06:48:49.031Z,13.40
2018-07-15T06:49:49.017Z,12.60
2018-07-15T06:50:49.070Z,12.70
2018-07-15T06:51:49.000Z,12.70
2018-07-15T06:52:48.989Z,12.70
2018-07-15T06:53:49.010Z,12.10
2018-07-15T06:54:48.964Z,11.40
2018-07-15T06:55:49.046Z,10.40
2018-07-15T06:56:48.946Z,11.10
2018-07-15T06:57:48.937Z,10.20
2018-07-15T06:58:49.031Z,11.00
2018-07-15T06:59:49.813Z,11.80
2018-07-15T07:00:48.962Z,11.50
2018-07-15T07:01:48.899Z,11.10
2018-07-15T07:02:48.880Z,11.70
2018-07-15T07:03:48.876Z,10.40
2018-07-15T07:04:48.864Z,10.30
2018-07-15T07:05:48.912Z,11.00
2018-07-15T07:06:48.840Z,11.40
2018-07-15T07:07:48.830Z,11.90
2018-07-15T07:08:48.821Z,11.30
2018-07-15T07:09:48.810Z,12.00
2018-07-15T07:10:48.876Z,11.60
2018-07-15T07:11:48.796Z,11.60
2018-07-15T07:12:48.785Z,11.70
2018-07-15T07:13:48.766Z,10.90
2018-07-15T07:14:48.760Z,11.00
2018-07-15T07:15:48.810Z,10.60
2018-07-15T07:16:48.748Z,11.60
2018-07-15T07:17:48.727Z,11.20
2018-07-15T07:18:48.713Z,11.50
2018-07-15T07:19:48.718Z,11.90
2018-07-15T07:20:48.890Z,10.90
2018-07-15T07:21:48.688Z,12.50
2018-07-15T07:22:48.674Z,12.10
2018-07-15T07:23:48.665Z,11.80
2018-07-15T07:24:48.657Z,13.10
2018-07-15T07:25:48.885Z,12.70
2018-07-15T07:26:48.632Z,12.40
2018-07-15T07:27:48.627Z,12.40
2018-07-15T07:28:48.664Z,11.90
2018-07-15T07:29:48.608Z,12.10
2018-07-15T07:30:48.681Z,12.10
2018-07-15T07:31:48.588Z,11.50
2018-07-15T07:32:48.576Z,11.50
2018-07-15T07:33:48.562Z,12.90
2018-07-15T07:34:48.575Z,12.60
2018-07-15T07:35:48.607Z,11.70
2018-07-15T07:36:48.535Z,10.90
2018-07-15T07:37:48.529Z,12.00
2018-07-15T07:38:48.567Z,11.70
2018-07-15T07:39:48.505Z,11.60
2018-07-15T07:40:48.557Z,12.30
2018-07-15T07:41:49.314Z,11.30
2018-07-15T07:42:48.477Z,11.60
2018-07-15T07:43:48.479Z,11.80
2018-07-15T07:44:48.466Z,11.70
2018-07-15T07:45:48.510Z,12.20
2018-07-15T07:46:48.444Z,12.00
2018-07-15T07:47:48.435Z,12.60
2018-07-15T07:48:48.425Z,12.50
2018-07-15T07:49:48.410Z,12.20
2018-07-15T07:50:48.478Z,12.30
2018-07-15T07:51:48.393Z,12.50
2018-07-15T07:52:48.384Z,13.90
2018-07-15T07:53:48.373Z,13.70
2018-07-15T07:54:48.363Z,12.70
2018-07-15T07:55:48.412Z,11.90
2018-07-15T07:56:48.344Z,13.30
2018-07-15T07:57:48.335Z,12.00
2018-07-15T07:58:48.325Z,12.30
2018-07-15T07:59:48.326Z,13.20
2018-07-15T08:00:48.368Z,13.30
2018-07-15T08:01:48.300Z,13.20
2018-07-15T08:02:48.817Z,12.60
2018-07-15T08:03:48.278Z,12.00
2018-07-15T08:04:48.276Z,12.40
2018-07-15T08:05:48.321Z,12.40
2018-07-15T08:06:48.256Z,13.00
2018-07-15T08:07:48.243Z,13.20
2018-07-15T08:08:48.237Z,13.70
2018-07-15T08:09:48.231Z,13.10
2018-07-15T08:10:48.292Z,12.30
2018-07-15T08:11:48.206Z,12.50
2018-07-15T08:12:48.198Z,12.50
2018-07-15T08:13:48.207Z,12.40
2018-07-15T08:14:48.181Z,12.00
2018-07-15T08:15:48.173Z,13.10
2018-07-15T08:16:48.225Z,12.10
2018-07-15T08:17:48.156Z,12.90
2018-07-15T08:18:48.144Z,13.00
2018-07-15T08:19:48.136Z,13.00
2018-07-15T08:20:48.145Z,12.50
2018-07-15T08:21:48.183Z,12.70
2018-07-15T08:22:48.117Z,12.90
2018-07-15T08:23:48.821Z,11.70
2018-07-15T08:24:48.092Z,13.20
2018-07-15T08:25:48.086Z,13.70
2018-07-15T08:26:48.139Z,12.70
2018-07-15T08:27:48.070Z,12.80
2018-07-15T08:28:48.061Z,12.40
2018-07-15T08:29:48.050Z,13.90
2018-07-15T08:30:48.041Z,12.90
2018-07-15T08:31:48.099Z,13.70
2018-07-15T08:32:48.028Z,13.50
2018-07-15T08:33:48.016Z,13.50
2018-07-15T08:34:48.040Z,13.60
2018-07-15T08:35:48.000Z,13.80
2018-07-15T08:36:48.065Z,12.50
2018-07-15T08:37:47.983Z,12.70
2018-07-15T08:38:47.971Z,12.70
2018-07-15T08:39:47.981Z,12.80
2018-07-15T08:40:48.012Z,12.00
2018-07-15T08:41:48.013Z,11.80
2018-07-15T08:42:47.940Z,12.00
2018-07-15T08:43:47.936Z,12.00
2018-07-15T08:44:48.814Z,12.80
2018-07-15T08:45:47.915Z,12.10
2018-07-15T08:46:47.971Z,11.60
2018-07-15T08:47:47.899Z,11.50
2018-07-15T08:48:47.893Z,12.20
2018-07-15T08:49:47.884Z,12.30
2018-07-15T08:50:47.876Z,12.70
2018-07-15T08:51:47.929Z,12.90
2018-07-15T08:52:47.859Z,12.80
2018-07-15T08:53:47.853Z,12.70
2018-07-15T08:54:47.863Z,12.40
2018-07-15T08:55:47.837Z,12.10
2018-07-15T08:56:47.893Z,12.40
2018-07-15T08:57:47.822Z,12.90
2018-07-15T08:58:47.812Z,12.70
2018-07-15T08:59:47.803Z,12.80
2018-07-15T09:00:47.798Z,12.90
2018-07-15T09:01:47.850Z,12.90
2018-07-15T09:02:47.784Z,13.10
2018-07-15T09:03:47.772Z,13.10
2018-07-15T09:04:47.764Z,13.00
2018-07-15T09:05:48.317Z,13.60
2018-07-15T09:06:47.827Z,13.40
2018-07-15T09:07:47.741Z,13.70
2018-07-15T09:08:47.739Z,13.80
2018-07-15T09:09:47.725Z,13.60
2018-07-15T09:10:47.719Z,13.10
2018-07-15T09:11:47.777Z,13.10
2018-07-15T09:12:47.718Z,14.20
2018-07-15T09:13:47.696Z,13.90
2018-07-15T09:14:47.694Z,13.70
2018-07-15T09:15:47.683Z,13.90
2018-07-15T09:16:47.738Z,14.30
2018-07-15T09:17:47.668Z,14.10
2018-07-15T09:18:47.657Z,14.50
2018-07-15T09:19:47.680Z,14.00
2018-07-15T09:20:47.648Z,14.10
2018-07-15T09:21:47.734Z,14.50
2018-07-15T09:22:47.629Z,14.50
2018-07-15T09:23:47.636Z,14.50
2018-07-15T09:24:47.616Z,14.80
2018-07-15T09:25:47.617Z,14.80
2018-07-15T09:26:48.378Z,14.20
2018-07-15T09:27:47.653Z,14.20
2018-07-15T09:28:47.586Z,14.50
2018-07-15T09:29:47.589Z,14.30
2018-07-15T09:30:47.572Z,14.00
2018-07-15T09:31:47.662Z,14.50
2018-07-15T09:32:47.563Z,14.60
2018-07-15T09:33:47.570Z,14.80
2018-07-15T09:34:47.544Z,15.00
2018-07-15T09:35:47.541Z,15.50
2018-07-15T09:36:47.590Z,15.40
2018-07-15T09:37:47.524Z,15.60
2018-07-15T09:38:47.518Z,14.90
2018-07-15T09:39:47.517Z,15.70
2018-07-15T09:40:47.502Z,16.00
2018-07-15T09:41:47.553Z,17.20
2018-07-15T09:42:47.493Z,16.00
2018-07-15T09:43:47.481Z,15.70
2018-07-15T09:44:47.475Z,16.10
2018-07-15T09:45:47.493Z,15.80
2018-07-15T09:46:47.525Z,15.90
2018-07-15T09:47:48.301Z,15.80
2018-07-15T09:48:47.452Z,15.80
2018-07-15T09:49:47.439Z,16.90
2018-07-15T09:50:47.430Z,16.40
2018-07-15T09:51:47.525Z,16.20
2018-07-15T09:52:47.419Z,16.80
2018-07-15T09:53:47.413Z,17.10
2018-07-15T09:54:47.408Z,16.50
2018-07-15T09:55:47.403Z,16.60
2018-07-15T09:56:47.397Z,17.40
2018-07-15T09:57:47.467Z,17.10
2018-07-15T09:58:47.380Z,17.60
2018-07-15T09:59:47.381Z,17.70
2018-07-15T10:00:47.362Z,17.50
2018-07-15T10:01:47.362Z,17.60
2018-07-15T10:02:47.441Z,18.10
2018-07-15T10:03:47.348Z,18.40
2018-07-15T10:04:47.340Z,18.70
2018-07-15T10:05:47.340Z,19.10
2018-07-15T10:06:47.329Z,19.10
2018-07-15T10:07:47.386Z,19.70
2018-07-15T10:08:48.292Z,19.60
2018-07-15T10:09:47.303Z,19.70
2018-07-15T10:10:47.303Z,21.10
2018-07-15T10:11:47.306Z,20.20
2018-07-15T10:12:47.347Z,19.50
2018-07-15T10:13:47.283Z,20.30
2018-07-15T10:14:47.293Z,20.60
2018-07-15T10:15:47.280Z,20.50
2018-07-15T10:16:47.260Z,19.90
2018-07-15T10:17:47.326Z,20.70
2018-07-15T10:18:47.252Z,20.80
2018-07-15T10:19:47.251Z,20.50
2018-07-15T10:20:47.241Z,20.70
2018-07-15T10:21:47.240Z,22.10
2018-07-15T10:22:47.287Z,21.20
2018-07-15T10:23:47.288Z,21.50
2018-07-15T10:24:47.296Z,21.10
2018-07-15T10:25:47.251Z,21.90
2018-07-15T10:26:47.211Z,22.30
2018-07-15T10:27:47.255Z,21.90
2018-07-15T10:28:47.192Z,21.70
2018-07-15T10:29:47.790Z,22.70
2018-07-15T10:30:47.177Z,22.90
2018-07-15T10:31:47.174Z,23.20
2018-07-15T10:32:47.246Z,23.10
2018-07-15T10:33:47.159Z,23.40
2018-07-15T10:34:47.159Z,24.30
2018-07-15T10:35:47.196Z,24.20
2018-07-15T10:36:47.145Z,23.40
2018-07-15T10:37:47.248Z,23.20
2018-07-15T10:38:47.179Z,23.60
2018-07-15T10:39:47.244Z,24.40
2018-07-15T10:40:47.151Z,23.90
2018-07-15T10:41:47.114Z,25.00
2018-07-15T10:42:47.185Z,24.50
2018-07-15T10:43:47.104Z,24.70
2018-07-15T10:44:47.110Z,23.40
2018-07-15T10:45:47.091Z,25.10
2018-07-15T10:46:47.105Z,25.40
2018-07-15T10:47:47.151Z,25.50
2018-07-15T10:48:47.079Z,25.10
2018-07-15T10:49:47.102Z,25.20
2018-07-15T10:50:47.793Z,24.70
2018-07-15T10:51:47.061Z,25.60
2018-07-15T10:52:47.614Z,24.30
2018-07-15T10:53:47.079Z,24.30
2018-07-15T10:54:47.044Z,24.00
2018-07-15T10:55:47.038Z,23.80
2018-07-15T10:56:47.038Z,24.50
2018-07-15T10:57:47.114Z,24.20
2018-07-15T10:58:47.031Z,24.00
2018-07-15T10:59:47.034Z,23.30
2018-07-15T11:00:47.041Z,24.00
2018-07-15T11:01:47.041Z,25.90
2018-07-15T11:02:47.099Z,26.10
2018-07-15T11:03:46.992Z,26.30
2018-07-15T11:04:47.009Z,26.30
2018-07-15T11:05:47.013Z,25.70
2018-07-15T11:06:46.992Z,26.20
2018-07-15T11:07:47.046Z,26.20
2018-07-15T11:08:47.133Z,26.30
2018-07-15T11:09:46.961Z,25.90
2018-07-15T11:10:46.955Z,25.90
2018-07-15T11:11:49.763Z,26.30
2018-07-15T11:12:46.943Z,26.00
2018-07-15T11:13:47.016Z,25.10
2018-07-15T11:14:46.947Z,25.10
2018-07-15T11:15:46.928Z,25.20
2018-07-15T11:16:46.957Z,25.70
2018-07-15T11:17:46.925Z,25.90
2018-07-15T11:18:47.064Z,24.10
2018-07-15T11:19:46.903Z,24.70
2018-07-15T11:20:46.914Z,24.70
2018-07-15T11:21:46.899Z,23.50
2018-07-15T11:22:46.888Z,24.60
2018-07-15T11:23:46.954Z,22.90
2018-07-15T11:24:46.874Z,23.00
2018-07-15T11:25:46.873Z,23.50
2018-07-15T11:26:46.865Z,24.20
2018-07-15T11:27:46.891Z,23.60
2018-07-15T11:28:46.933Z,23.70
2018-07-15T11:29:46.845Z,23.00
2018-07-15T11:30:46.971Z,23.60
2018-07-15T11:31:46.839Z,24.10
2018-07-15T11:32:47.750Z,23.50
2018-07-15T11:33:46.897Z,24.20
2018-07-15T11:34:46.848Z,23.60
2018-07-15T11:35:46.825Z,23.70
2018-07-15T11:36:46.843Z,24.80
2018-07-15T11:37:46.805Z,24.20
2018-07-15T11:38:46.876Z,24.40
2018-07-15T11:39:46.853Z,25.00
2018-07-15T11:40:46.822Z,24.40
2018-07-15T11:41:46.785Z,25.20
2018-07-15T11:42:46.782Z,24.80
2018-07-15T11:43:55.272Z,25.10
2018-07-15T11:44:46.771Z,24.40
2018-07-15T11:45:46.767Z,24.80
2018-07-15T11:46:46.753Z,24.50
2018-07-15T11:47:46.745Z,25.50
2018-07-15T11:48:46.740Z,24.70
2018-07-15T11:49:46.798Z,25.40
2018-07-15T11:50:46.739Z,24.90
2018-07-15T11:51:46.740Z,25.10
2018-07-15T11:52:46.716Z,24.70
2018-07-15T11:53:46.716Z,25.80
2018-07-15T11:54:46.782Z,25.00
2018-07-15T11:55:46.701Z,25.40
2018-07-15T11:56:46.693Z,25.00
2018-07-15T11:57:46.690Z,23.90
2018-07-15T11:58:46.682Z,23.70
2018-07-15T11:59:46.740Z,24.20
2018-07-15T12:00:46.678Z,24.10
2018-07-15T12:01:46.713Z,24.70
2018-07-15T12:02:46.667Z,24.90
2018-07-15T12:03:46.656Z,24.80
2018-07-15T12:04:46.825Z,25.20
2018-07-15T12:05:46.644Z,25.70
2018-07-15T12:06:46.641Z,25.30
2018-07-15T12:07:46.633Z,25.30
2018-07-15T12:08:46.627Z,24.70
2018-07-15T12:09:46.683Z,24.60
2018-07-15T12:10:46.616Z,24.90
2018-07-15T12:11:46.615Z,24.80
2018-07-15T12:12:46.606Z,25.10
2018-07-15T12:13:46.601Z,24.20
2018-07-15T12:14:46.657Z,25.00
2018-07-15T12:15:46.590Z,24.90
2018-07-15T12:16:46.589Z,24.20
2018-07-15T12:17:46.581Z,24.20
2018-07-15T12:18:46.573Z,23.90
2018-07-15T12:19:46.633Z,24.70
2018-07-15T12:20:46.569Z,25.20
2018-07-15T12:21:46.561Z,25.70
2018-07-15T12:22:46.560Z,24.70
2018-07-15T12:23:46.552Z,23.70
2018-07-15T12:24:46.608Z,24.20
2018-07-15T12:25:47.249Z,24.50
2018-07-15T12:26:46.537Z,25.00
2018-07-15T12:27:46.529Z,25.30
2018-07-15T12:28:46.527Z,26.10
2018-07-15T12:29:46.605Z,26.00
2018-07-15T12:30:46.514Z,26.50
2018-07-15T12:31:46.511Z,26.40
2018-07-15T12:32:46.503Z,25.80
2018-07-15T12:33:46.500Z,25.90
2018-07-15T12:34:46.556Z,25.20
2018-07-15T12:35:46.491Z,25.40
2018-07-15T12:36:54.614Z,26.20
2018-07-15T12:37:46.493Z,25.60
2018-07-15T12:38:46.471Z,25.50
2018-07-15T12:39:46.532Z,24.70
2018-07-15T12:40:46.462Z,24.70
2018-07-15T12:41:46.454Z,24.60
2018-07-15T12:42:46.454Z,24.10
2018-07-15T12:43:46.443Z,23.80
2018-07-15T12:44:46.501Z,22.70
2018-07-15T12:45:46.453Z,22.40
2018-07-15T12:46:46.434Z,21.70
2018-07-15T12:47:46.428Z,22.20
2018-07-15T12:48:46.425Z,22.20
2018-07-15T12:49:46.488Z,22.40
2018-07-15T12:50:46.414Z,22.10
2018-07-15T12:51:46.410Z,22.40
2018-07-15T12:52:46.405Z,22.90
2018-07-15T12:53:46.404Z,23.10
2018-07-15T12:54:46.402Z,22.20
2018-07-15T12:55:46.480Z,21.60
2018-07-15T12:56:46.384Z,21.70
2018-07-15T12:57:49.262Z,22.00
2018-07-15T12:58:46.386Z,21.20
2018-07-15T12:59:46.370Z,20.40
2018-07-15T13:00:46.428Z,20.00
2018-07-15T13:01:46.358Z,19.30